createdAt,value
2024-04-21T00:00:19.372Z,1.7
2024-04-21T00:01:22.223Z,1.6
2024-04-21T00:02:23.914Z,1.6
2024-04-21T00:03:25.919Z,1.6
2024-04-21T00:04:28.056Z,1.6
2024-04-21T00:05:30.516Z,1.6
2024-04-21T00:06:31.917Z,1.6
2024-04-21T00:07:34.047Z,1.5
2024-04-21T00:08:36.076Z,1.5
2024-04-21T00:09:38.419Z,1.5
2024-04-21T00:10:40.476Z,1.5
2024-04-21T00:11:41.895Z,1.5
2024-04-21T00:12:45.545Z,1.5
2024-04-21T00:13:46.514Z,1.5
2024-04-21T00:14:48.546Z,1.5
2024-04-21T00:15:50.592Z,1.4
2024-04-21T00:16:53.252Z,1.4
2024-04-21T00:17:54.595Z,1.4
2024-04-21T00:18:56.581Z,1.4
2024-04-21T00:19:58.527Z,1.4
2024-04-21T00:21:01.037Z,1.4
2024-04-21T00:22:03.108Z,1.3
2024-04-21T00:23:04.505Z,1.4
2024-04-21T00:24:06.890Z,1.4
2024-04-21T00:25:08.534Z,1.4
2024-04-21T00:26:11.001Z,1.4
2024-04-21T00:27:12.496Z,1.4
2024-04-21T00:28:14.567Z,1.4
2024-04-21T00:29:16.516Z,1.4
2024-04-21T00:30:18.597Z,1.4
2024-04-21T00:31:20.740Z,1.4
2024-04-21T00:32:22.494Z,1.4
2024-04-21T00:33:24.616Z,1.4
2024-04-21T00:34:26.857Z,1.4
2024-04-21T00:35:28.864Z,1.4
2024-04-21T00:36:30.951Z,1.4
2024-04-21T00:37:32.528Z,1.4
2024-04-21T00:38:34.592Z,1.5
2024-04-21T00:39:36.502Z,1.5
2024-04-21T00:40:38.833Z,1.5
2024-04-21T00:41:40.522Z,1.5
2024-04-21T00:42:42.547Z,1.5
2024-04-21T00:43:44.689Z,1.5
2024-04-21T00:44:46.478Z,1.5
2024-04-21T00:45:48.603Z,1.5
2024-04-21T00:46:50.519Z,1.5
2024-04-21T00:47:52.504Z,1.5
2024-04-21T00:48:54.527Z,1.5
2024-04-21T00:49:57.035Z,1.5
2024-04-21T00:50:58.470Z,1.5
2024-04-21T00:52:00.518Z,1.5
2024-04-21T00:53:02.465Z,1.5
2024-04-21T00:54:04.464Z,1.5
2024-04-21T00:55:07.004Z,1.5
2024-04-21T00:56:08.490Z,1.5
2024-04-21T00:57:10.527Z,1.5
2024-04-21T00:58:12.920Z,1.5
2024-04-21T00:59:14.455Z,1.5
2024-04-21T01:00:16.647Z,1.5
2024-04-21T01:01:18.575Z,1.5
2024-04-21T01:02:20.504Z,1.5
2024-04-21T01:03:22.454Z,1.5
2024-04-21T01:04:24.481Z,1.5
2024-04-21T01:05:26.503Z,1.5
2024-04-21T01:06:28.707Z,1.5
2024-04-21T01:07:30.450Z,1.5
2024-04-21T01:08:32.444Z,1.5
2024-04-21T01:09:34.443Z,1.5
2024-04-21T01:10:36.483Z,1.5
2024-04-21T01:11:38.502Z,1.4
2024-04-21T01:12:40.447Z,1.4
2024-04-21T01:13:42.440Z,1.4
2024-04-21T01:14:44.491Z,1.4
2024-04-21T01:15:46.475Z,1.4
2024-04-21T01:16:48.458Z,1.4
2024-04-21T01:17:50.530Z,1.4
2024-04-21T01:18:52.474Z,1.4
2024-04-21T01:19:55.095Z,1.4
2024-04-21T01:20:56.430Z,1.4
2024-04-21T01:21:58.439Z,1.4
2024-04-21T01:23:00.473Z,1.4
2024-04-21T01:24:02.976Z,1.4
2024-04-21T01:25:05.059Z,1.4
2024-04-21T01:26:06.547Z,1.4
2024-04-21T01:27:08.849Z,1.4
2024-04-21T01:28:10.438Z,1.4
2024-04-21T01:29:12.448Z,1.4
2024-04-21T01:30:14.447Z,1.4
2024-04-21T01:31:16.826Z,1.4
2024-04-21T01:32:18.827Z,1.4
2024-04-21T01:33:20.444Z,1.4
2024-04-21T01:34:23.017Z,1.4
2024-04-21T01:35:24.690Z,1.4
2024-04-21T01:36:26.728Z,1.4
2024-04-21T01:37:28.411Z,1.4
2024-04-21T01:38:30.595Z,1.4
2024-04-21T01:39:32.470Z,1.4
2024-04-21T01:40:34.974Z,1.4
2024-04-21T01:41:36.752Z,1.4
2024-04-21T01:42:38.403Z,1.4
2024-04-21T01:43:40.450Z,1.4
2024-04-21T01:44:42.451Z,1.4
2024-04-21T01:45:44.438Z,1.4
2024-04-21T01:46:46.667Z,1.4
2024-04-21T01:47:48.705Z,1.4
2024-04-21T01:48:50.450Z,1.4
2024-04-21T01:49:52.397Z,1.4
2024-04-21T01:50:54.392Z,1.4
2024-04-21T01:51:56.408Z,1.4
2024-04-21T01:52:58.416Z,1.4
2024-04-21T01:54:00.427Z,1.4
2024-04-21T01:55:02.604Z,1.3
2024-04-21T01:56:04.539Z,1.3
2024-04-21T01:57:06.592Z,1.2
2024-04-21T01:58:09.067Z,1.2
2024-04-21T01:59:10.382Z,1.2
2024-04-21T02:00:12.389Z,1.2
2024-04-21T02:01:14.414Z,1.3
2024-04-21T02:02:16.863Z,1.3
2024-04-21T02:03:18.502Z,1.2
2024-04-21T02:04:20.438Z,1.3
2024-04-21T02:05:22.705Z,1.2
2024-04-21T02:06:24.544Z,1.2
2024-04-21T02:07:26.827Z,1.2
2024-04-21T02:08:28.376Z,1.2
2024-04-21T02:09:30.379Z,1.2
2024-04-21T02:10:32.388Z,1.2
2024-04-21T02:11:34.796Z,1.2
2024-04-21T02:12:36.380Z,1.2
2024-04-21T02:13:38.579Z,1.2
2024-04-21T02:14:40.384Z,1.1
2024-04-21T02:15:42.408Z,1.1
2024-04-21T02:16:44.407Z,1.1
2024-04-21T02:17:46.376Z,1.1
2024-04-21T02:18:48.368Z,1.2
2024-04-21T02:19:50.356Z,1.2
2024-04-21T02:20:52.382Z,1.2
2024-04-21T02:21:54.384Z,1.2
2024-04-21T02:22:56.361Z,1.2
2024-04-21T02:23:58.353Z,1.2
2024-04-21T02:25:00.462Z,1.2
2024-04-21T02:26:02.382Z,1.2
2024-04-21T02:27:04.352Z,1.2
2024-04-21T02:28:06.390Z,1.1
2024-04-21T02:29:08.342Z,1
2024-04-21T02:30:10.372Z,1
2024-04-21T02:31:12.355Z,0.8
2024-04-21T02:32:14.367Z,0.8
2024-04-21T02:33:16.382Z,0.7
2024-04-21T02:34:18.381Z,0.6
2024-04-21T02:35:20.356Z,0.6
2024-04-21T02:36:22.343Z,0.4
2024-04-21T02:37:24.361Z,0.4
2024-04-21T02:38:26.328Z,0.3
2024-04-21T02:39:28.355Z,0.2
2024-04-21T02:40:30.356Z,0.2
2024-04-21T02:41:32.336Z,0.1
2024-04-21T02:42:34.327Z,0
2024-04-21T02:43:36.340Z,0
2024-04-21T02:44:38.347Z,0
2024-04-21T02:45:40.389Z,0
2024-04-21T02:46:42.345Z,0
2024-04-21T02:47:44.342Z,0
2024-04-21T02:48:46.372Z,0
2024-04-21T02:49:48.341Z,0
2024-04-21T02:50:50.315Z,0
2024-04-21T02:51:52.324Z,0
2024-04-21T02:52:54.314Z,0
2024-04-21T02:53:56.353Z,0
2024-04-21T02:54:58.326Z,0
2024-04-21T02:56:00.346Z,-0.1
2024-04-21T02:57:02.327Z,-0.1
2024-04-21T02:58:04.367Z,-0.1
2024-04-21T02:59:06.350Z,-0.1
2024-04-21T03:00:08.302Z,-0.1
2024-04-21T03:01:10.332Z,-0.1
2024-04-21T03:02:12.356Z,-0.1
2024-04-21T03:03:14.323Z,0
2024-04-21T03:04:16.337Z,-0.1
2024-04-21T03:05:18.293Z,0
2024-04-21T03:06:20.298Z,0
2024-04-21T03:07:22.329Z,0
2024-04-21T03:08:24.318Z,0
2024-04-21T03:09:26.290Z,0
2024-04-21T03:10:28.338Z,0
2024-04-21T03:11:30.336Z,0
2024-04-21T03:12:32.309Z,0
2024-04-21T03:13:34.282Z,0
2024-04-21T03:14:36.303Z,0
2024-04-21T03:15:38.293Z,0
2024-04-21T03:16:40.279Z,0
2024-04-21T03:17:42.318Z,0
2024-04-21T03:18:44.275Z,0.1
2024-04-21T03:19:46.276Z,0.1
2024-04-21T03:20:48.274Z,0.1
2024-04-21T03:21:50.345Z,0.1
2024-04-21T03:22:52.272Z,0.2
2024-04-21T03:23:54.270Z,0.2
2024-04-21T03:24:56.308Z,0.2
2024-04-21T03:25:58.269Z,0.2
2024-04-21T03:27:00.342Z,0.2
2024-04-21T03:28:02.292Z,0.2
2024-04-21T03:29:04.266Z,0.2
2024-04-21T03:30:06.282Z,0.2
2024-04-21T03:31:08.328Z,0.3
2024-04-21T03:32:10.295Z,0.2
2024-04-21T03:33:12.317Z,0.2
2024-04-21T03:34:14.277Z,0.3
2024-04-21T03:35:16.256Z,0.3
2024-04-21T03:36:18.284Z,0.3
2024-04-21T03:37:20.286Z,0.3
2024-04-21T03:38:22.262Z,0.3
2024-04-21T03:39:24.264Z,0.2
2024-04-21T03:40:26.316Z,0.2
2024-04-21T03:41:28.274Z,0.2
2024-04-21T03:42:30.251Z,0.2
2024-04-21T03:43:32.250Z,0.2
2024-04-21T03:44:34.243Z,0.2
2024-04-21T03:45:36.289Z,0.2
2024-04-21T03:46:38.276Z,0.2
2024-04-21T03:47:40.324Z,0.2
2024-04-21T03:48:42.245Z,0.1
2024-04-21T03:49:44.266Z,0.1
2024-04-21T03:50:46.273Z,0.1
2024-04-21T03:51:48.252Z,0.1
2024-04-21T03:52:50.233Z,0
2024-04-21T03:53:52.241Z,0.1
2024-04-21T03:54:54.274Z,0.1
2024-04-21T03:55:56.236Z,0.1
2024-04-21T03:56:58.229Z,0
2024-04-21T03:58:00.261Z,0
2024-04-21T03:59:02.270Z,0
2024-04-21T04:00:04.262Z,0
2024-04-21T04:01:06.266Z,0
2024-04-21T04:02:08.225Z,0
2024-04-21T04:03:10.287Z,0
2024-04-21T04:04:12.296Z,0
2024-04-21T04:05:14.223Z,0
2024-04-21T04:06:16.221Z,0
2024-04-21T04:07:18.291Z,0
2024-04-21T04:08:20.246Z,0
2024-04-21T04:09:22.252Z,-0.1
2024-04-21T04:10:24.275Z,0
2024-04-21T04:11:26.267Z,0
2024-04-21T04:12:28.220Z,0
2024-04-21T04:13:30.265Z,0
2024-04-21T04:14:32.208Z,0
2024-04-21T04:15:34.204Z,0
2024-04-21T04:16:36.224Z,0
2024-04-21T04:17:38.270Z,0
2024-04-21T04:18:40.227Z,0
2024-04-21T04:19:42.204Z,0
2024-04-21T04:20:44.198Z,0
2024-04-21T04:21:46.232Z,0
2024-04-21T04:22:48.263Z,0
2024-04-21T04:23:50.194Z,0
2024-04-21T04:24:52.224Z,0
2024-04-21T04:25:54.195Z,0
2024-04-21T04:26:56.190Z,0
2024-04-21T04:27:58.229Z,0
2024-04-21T04:29:00.190Z,0
2024-04-21T04:30:02.209Z,0
2024-04-21T04:31:04.227Z,0
2024-04-21T04:32:06.226Z,0
2024-04-21T04:33:08.266Z,0
2024-04-21T04:34:10.222Z,0
2024-04-21T04:35:12.180Z,0
2024-04-21T04:36:14.185Z,0
2024-04-21T04:37:16.242Z,0
2024-04-21T04:38:18.176Z,0
2024-04-21T04:39:20.173Z,0
2024-04-21T04:40:22.260Z,0
2024-04-21T04:41:24.204Z,0
2024-04-21T04:42:26.196Z,0
2024-04-21T04:43:28.195Z,0
2024-04-21T04:44:30.182Z,0
2024-04-21T04:45:32.173Z,0
2024-04-21T04:46:34.197Z,0
2024-04-21T04:47:36.234Z,0
2024-04-21T04:48:38.166Z,0
2024-04-21T04:49:40.170Z,0
2024-04-21T04:50:42.188Z,0
2024-04-21T04:51:44.200Z,0
2024-04-21T04:52:46.163Z,0
2024-04-21T04:53:48.161Z,0
2024-04-21T04:54:50.190Z,0
2024-04-21T04:55:52.185Z,0
2024-04-21T04:56:54.156Z,0
2024-04-21T04:57:56.189Z,0
2024-04-21T04:58:58.159Z,0
2024-04-21T05:00:00.264Z,0
2024-04-21T05:01:02.240Z,0
2024-04-21T05:02:04.149Z,0
2024-04-21T05:03:06.275Z,0
2024-04-21T05:04:08.189Z,0
2024-04-21T05:05:10.171Z,0
2024-04-21T05:06:12.173Z,0
2024-04-21T05:07:14.406Z,-0.1
2024-04-21T05:08:16.139Z,0
2024-04-21T05:09:18.137Z,0
2024-04-21T05:10:20.258Z,0
2024-04-21T05:11:22.143Z,0
2024-04-21T05:12:24.135Z,0
2024-04-21T05:13:26.140Z,0
2024-04-21T05:14:28.157Z,0
2024-04-21T05:15:30.180Z,0
2024-04-21T05:16:32.131Z,0
2024-04-21T05:17:34.213Z,0
2024-04-21T05:18:36.170Z,0.1
2024-04-21T05:19:38.154Z,0
2024-04-21T05:20:40.127Z,0.1
2024-04-21T05:21:42.125Z,0.1
2024-04-21T05:22:44.133Z,0.1
2024-04-21T05:23:46.122Z,0.2
2024-04-21T05:24:48.190Z,0.2
2024-04-21T05:25:50.122Z,0.2
2024-04-21T05:26:52.119Z,0.2
2024-04-21T05:27:54.129Z,0.3
2024-04-21T05:28:56.176Z,0.3
2024-04-21T05:29:58.140Z,0.3
2024-04-21T05:31:00.176Z,0.2
2024-04-21T05:32:02.142Z,0.3
2024-04-21T05:33:04.118Z,0.2
2024-04-21T05:34:06.165Z,0.2
2024-04-21T05:35:08.108Z,0.3
2024-04-21T05:36:10.108Z,0.3
2024-04-21T05:37:12.139Z,0.3
2024-04-21T05:38:14.135Z,0.3
2024-04-21T05:39:16.127Z,0.3
2024-04-21T05:40:18.178Z,0.3
2024-04-21T05:41:20.102Z,0.3
2024-04-21T05:42:22.099Z,0.4
2024-04-21T05:43:24.191Z,0.4
2024-04-21T05:44:26.101Z,0.4
2024-04-21T05:45:28.099Z,0.4
2024-04-21T05:46:30.131Z,0.4
2024-04-21T05:47:32.152Z,0.4
2024-04-21T05:48:34.218Z,0.5
2024-04-21T05:49:36.134Z,0.5
2024-04-21T05:50:38.103Z,0.5
2024-04-21T05:51:40.087Z,0.5
2024-04-21T05:52:42.113Z,0.5
2024-04-21T05:53:44.101Z,0.6
2024-04-21T05:54:46.096Z,0.6
2024-04-21T05:55:48.079Z,0.6
2024-04-21T05:56:50.085Z,0.6
2024-04-21T05:57:52.122Z,0.8
2024-04-21T05:58:54.087Z,0.8
2024-04-21T05:59:56.073Z,0.8
2024-04-21T06:00:58.128Z,0.8
2024-04-21T06:02:00.101Z,0.7
2024-04-21T06:03:02.136Z,0.6
2024-04-21T06:04:04.115Z,0.6
2024-04-21T06:05:06.154Z,0.6
2024-04-21T06:06:08.108Z,0.6
2024-04-21T06:07:10.150Z,0.6
2024-04-21T06:08:12.070Z,0.6
2024-04-21T06:09:14.060Z,0.6
2024-04-21T06:10:16.105Z,0.6
2024-04-21T06:11:18.122Z,0.6
2024-04-21T06:12:20.093Z,0.6
2024-04-21T06:13:22.069Z,0.6
2024-04-21T06:14:24.056Z,0.6
2024-04-21T06:15:26.053Z,0.6
2024-04-21T06:16:28.106Z,0.6
2024-04-21T06:17:30.090Z,0.6
2024-04-21T06:18:32.125Z,0.6
2024-04-21T06:19:34.077Z,0.6
2024-04-21T06:20:36.144Z,0.7
2024-04-21T06:21:38.090Z,0.7
2024-04-21T06:22:40.130Z,0.7
2024-04-21T06:23:42.045Z,0.7
2024-04-21T06:24:44.044Z,0.8
2024-04-21T06:25:46.077Z,0.8
2024-04-21T06:26:49.916Z,0.7
2024-04-21T06:27:50.807Z,0.7
2024-04-21T06:28:52.783Z,0.7
2024-04-21T06:29:54.816Z,0.6
2024-04-21T06:30:56.816Z,0.6
2024-04-21T06:31:58.843Z,0.6
2024-04-21T06:33:00.806Z,0.7
2024-04-21T06:34:02.815Z,0.7
2024-04-21T06:35:05.642Z,0.8
2024-04-21T06:36:10.471Z,0.8
2024-04-21T06:37:12.474Z,0.8
2024-04-21T06:38:14.470Z,0.8
2024-04-21T06:39:16.458Z,0.8
2024-04-21T06:40:18.551Z,0.8
2024-04-21T06:41:20.452Z,0.8
2024-04-21T06:42:22.450Z,0.8
2024-04-21T06:43:24.503Z,0.8
2024-04-21T06:44:26.474Z,0.8
2024-04-21T06:45:28.442Z,0.8
2024-04-21T06:46:30.448Z,0.7
2024-04-21T06:47:32.472Z,0.7
2024-04-21T06:48:34.605Z,0.6
2024-04-21T06:49:36.487Z,0.7
2024-04-21T06:50:38.454Z,0.7
2024-04-21T06:51:40.458Z,0.7
2024-04-21T06:52:42.437Z,0.7
2024-04-21T06:53:44.480Z,0.7
2024-04-21T06:54:46.462Z,0.7
2024-04-21T06:55:48.443Z,0.7
2024-04-21T06:56:50.436Z,0.7
2024-04-21T06:57:52.445Z,0.8
2024-04-21T06:58:54.450Z,0.8
2024-04-21T06:59:56.432Z,0.8
2024-04-21T07:00:58.513Z,0.8
2024-04-21T07:02:00.532Z,0.9
2024-04-21T07:03:03.289Z,0.9
2024-04-21T07:04:08.704Z,0.9
2024-04-21T07:05:10.710Z,0.8
2024-04-21T07:06:12.695Z,0.8
2024-04-21T07:07:14.763Z,0.8
2024-04-21T07:08:16.744Z,0.7
2024-04-21T07:09:18.693Z,0.7
2024-04-21T07:10:20.734Z,0.7
2024-04-21T07:11:22.716Z,0.7
2024-04-21T07:12:24.713Z,0.7
2024-04-21T07:13:26.763Z,0.7
2024-04-21T07:14:28.676Z,0.7
2024-04-21T07:15:30.678Z,0.8
2024-04-21T07:16:32.701Z,0.8
2024-04-21T07:17:34.793Z,0.8
2024-04-21T07:18:36.804Z,0.8
2024-04-21T07:19:38.754Z,0.8
2024-04-21T07:20:40.674Z,0.8
2024-04-21T07:21:42.699Z,0.8
2024-04-21T07:22:44.895Z,0.8
2024-04-21T07:23:46.668Z,0.8
2024-04-21T07:24:48.706Z,0.9
2024-04-21T07:25:50.685Z,0.9
2024-04-21T07:26:52.692Z,0.9
2024-04-21T07:27:54.699Z,1
2024-04-21T07:28:56.683Z,1
2024-04-21T07:29:58.662Z,1
2024-04-21T07:31:00.708Z,1
2024-04-21T07:32:02.718Z,1
2024-04-21T07:33:04.747Z,0.9
2024-04-21T07:34:06.665Z,0.8
2024-04-21T07:35:08.653Z,0.8
2024-04-21T07:36:10.688Z,0.9
2024-04-21T07:37:12.661Z,0.8
2024-04-21T07:38:14.678Z,0.8
2024-04-21T07:39:16.656Z,0.9
2024-04-21T07:40:18.714Z,0.9
2024-04-21T07:41:20.674Z,1
2024-04-21T07:42:22.675Z,1
2024-04-21T07:43:24.690Z,1
2024-04-21T07:44:26.652Z,1
2024-04-21T07:45:29.195Z,1
2024-04-21T07:46:30.669Z,1
2024-04-21T07:47:32.706Z,1
2024-04-21T07:48:34.679Z,1
2024-04-21T07:49:36.669Z,1
2024-04-21T07:50:38.681Z,1
2024-04-21T07:51:40.632Z,1
2024-04-21T07:52:42.634Z,1.1
2024-04-21T07:53:44.652Z,1.1
2024-04-21T07:54:46.663Z,1.1
2024-04-21T07:55:48.826Z,1.1
2024-04-21T07:56:50.643Z,1.1
2024-04-21T07:57:52.666Z,1.1
2024-04-21T07:58:54.659Z,1.1
2024-04-21T07:59:56.650Z,1.2
2024-04-21T08:00:58.667Z,1.2
2024-04-21T08:02:00.678Z,1.1
2024-04-21T08:03:02.655Z,1.2
2024-04-21T08:04:04.695Z,1.2
2024-04-21T08:05:06.615Z,1.2
2024-04-21T08:06:08.622Z,1.2
2024-04-21T08:07:10.661Z,1.2
2024-04-21T08:08:12.610Z,1.2
2024-04-21T08:09:21.575Z,1.2
2024-04-21T08:10:31.903Z,1.2
2024-04-21T08:11:33.921Z,1.2
2024-04-21T08:12:35.893Z,1.3
2024-04-21T08:13:37.919Z,1.2
2024-04-21T08:14:39.889Z,1.3
2024-04-21T08:15:41.895Z,1.3
2024-04-21T08:16:43.906Z,1.4
2024-04-21T08:17:45.994Z,1.4
2024-04-21T08:18:47.987Z,1.4
2024-04-21T08:19:50.220Z,1.4
2024-04-21T08:20:51.932Z,1.4
2024-04-21T08:21:53.917Z,1.4
2024-04-21T08:22:55.907Z,1.4
2024-04-21T08:23:57.877Z,1.4
2024-04-21T08:24:59.933Z,1.4
2024-04-21T08:26:01.946Z,1.4
2024-04-21T08:27:03.906Z,1.4
2024-04-21T08:28:05.922Z,1.4
2024-04-21T08:29:07.870Z,1.4
2024-04-21T08:30:09.875Z,1.5
2024-04-21T08:31:11.922Z,1.5
2024-04-21T08:32:13.980Z,1.5
2024-04-21T08:33:15.878Z,1.5
2024-04-21T08:34:17.894Z,1.6
2024-04-21T08:35:19.869Z,1.6
2024-04-21T08:36:21.896Z,1.7
2024-04-21T08:37:24.874Z,1.7
2024-04-21T08:38:25.860Z,1.8
2024-04-21T08:39:27.860Z,1.8
2024-04-21T08:40:29.897Z,1.9
2024-04-21T08:41:31.889Z,1.8
2024-04-21T08:42:33.871Z,1.8
2024-04-21T08:43:35.857Z,1.8
2024-04-21T08:44:37.852Z,1.8
2024-04-21T08:45:39.858Z,1.8
2024-04-21T08:46:41.877Z,1.9
2024-04-21T08:47:43.889Z,1.9
2024-04-21T08:48:46.175Z,1.9
2024-04-21T08:49:47.842Z,2
2024-04-21T08:50:49.872Z,2
2024-04-21T08:51:51.980Z,2.1
2024-04-21T08:52:53.913Z,2.1
2024-04-21T08:53:55.839Z,2.2
2024-04-21T08:54:57.840Z,2.2
2024-04-21T08:55:59.887Z,2.3
2024-04-21T08:57:01.886Z,2.4
2024-04-21T08:58:03.853Z,2.5
2024-04-21T08:59:05.833Z,2.5
2024-04-21T09:00:07.860Z,2.7
2024-04-21T09:01:09.924Z,2.8
2024-04-21T09:02:11.829Z,3
2024-04-21T09:03:13.827Z,3.1
2024-04-21T09:04:15.853Z,3.2
2024-04-21T09:05:17.850Z,3.3
2024-04-21T09:06:19.820Z,3.3
2024-04-21T09:07:21.902Z,3.2
2024-04-21T09:08:23.828Z,3.1
2024-04-21T09:09:25.847Z,3.1
2024-04-21T09:10:27.902Z,3
2024-04-21T09:11:29.983Z,3
2024-04-21T09:12:32.060Z,3
2024-04-21T09:13:33.818Z,2.9
2024-04-21T09:14:35.841Z,2.8
2024-04-21T09:15:37.822Z,2.8
2024-04-21T09:16:39.812Z,2.7
2024-04-21T09:17:41.865Z,2.7
2024-04-21T09:18:43.880Z,2.7
2024-04-21T09:19:45.835Z,2.7
2024-04-21T09:20:47.810Z,2.6
2024-04-21T09:21:49.918Z,2.6
2024-04-21T09:22:51.807Z,2.7
2024-04-21T09:23:53.831Z,2.7
2024-04-21T09:24:55.821Z,2.7
2024-04-21T09:25:57.808Z,2.8
2024-04-21T09:26:59.826Z,2.8
2024-04-21T09:28:01.864Z,2.9
2024-04-21T09:29:03.829Z,3
2024-04-21T09:30:05.815Z,3
2024-04-21T09:31:07.838Z,3.1
2024-04-21T09:32:10.688Z,3.1
2024-04-21T09:33:12.167Z,3.2
2024-04-21T09:34:13.980Z,3.2
2024-04-21T09:35:16.495Z,3.2
2024-04-21T09:36:17.941Z,3.3
2024-04-21T09:37:20.070Z,3.3
2024-04-21T09:38:21.958Z,3.3
2024-04-21T09:39:23.926Z,3.4
2024-04-21T09:40:25.940Z,3.5
2024-04-21T09:41:27.931Z,3.5
2024-04-21T09:42:29.966Z,3.5
2024-04-21T09:43:31.962Z,3.5
2024-04-21T09:44:33.921Z,3.5
2024-04-21T09:45:35.918Z,3.5
2024-04-21T09:46:37.945Z,3.5
2024-04-21T09:47:40.016Z,3.6
2024-04-21T09:48:41.918Z,3.6
2024-04-21T09:49:43.912Z,3.8
2024-04-21T09:50:45.934Z,4
2024-04-21T09:51:47.948Z,4.1
2024-04-21T09:52:50.215Z,4.2
2024-04-21T09:53:51.935Z,4.3
2024-04-21T09:54:53.933Z,4.5
2024-04-21T09:55:55.958Z,4.8
2024-04-21T09:56:57.937Z,5
2024-04-21T09:57:59.963Z,5
2024-04-21T09:59:01.904Z,5
2024-04-21T10:00:03.904Z,5.1
2024-04-21T10:01:05.973Z,5.3
2024-04-21T10:02:08.117Z,5.5
2024-04-21T10:03:10.460Z,5.7
2024-04-21T10:04:11.958Z,5.9
2024-04-21T10:05:13.931Z,6
2024-04-21T10:06:16.278Z,6.1
2024-04-21T10:07:18.342Z,6.3
2024-04-21T10:08:22.406Z,6.5
2024-04-21T10:09:24.157Z,6.6
2024-04-21T10:10:26.237Z,6.7
2024-04-21T10:11:28.176Z,6.7
2024-04-21T10:12:30.158Z,6.6
2024-04-21T10:13:32.591Z,6.5
2024-04-21T10:14:34.177Z,6.3
2024-04-21T10:15:36.177Z,6.2
2024-04-21T10:16:38.149Z,6
2024-04-21T10:17:40.219Z,5.8
2024-04-21T10:18:42.190Z,5.7
2024-04-21T10:19:44.169Z,5.6
2024-04-21T10:20:46.145Z,5.5
2024-04-21T10:21:48.145Z,5.5
2024-04-21T10:22:50.146Z,5.5
2024-04-21T10:23:52.142Z,5.7
2024-04-21T10:24:54.247Z,5.9
2024-04-21T10:25:56.583Z,6
2024-04-21T10:26:59.543Z,6
2024-04-21T10:28:00.834Z,6.3
2024-04-21T10:29:02.883Z,6.6
2024-04-21T10:30:04.839Z,6.9
2024-04-21T10:31:06.973Z,7.3
2024-04-21T10:32:08.876Z,7.6
2024-04-21T10:33:10.929Z,7.8
2024-04-21T10:34:13.377Z,8
2024-04-21T10:35:14.836Z,7.9
2024-04-21T10:36:16.835Z,7.8
2024-04-21T10:37:18.864Z,7.6
2024-04-21T10:38:20.846Z,7.3
2024-04-21T10:39:22.823Z,7.1
2024-04-21T10:40:24.897Z,6.9
2024-04-21T10:41:26.818Z,6.6
2024-04-21T10:42:28.814Z,6.3
2024-04-21T10:43:30.923Z,5.9
2024-04-21T10:44:33.234Z,5.7
2024-04-21T10:45:34.834Z,5.5
2024-04-21T10:46:37.361Z,5.5
2024-04-21T10:47:38.868Z,5.3
2024-04-21T10:48:40.807Z,5.3
2024-04-21T10:49:42.807Z,5.1
2024-04-21T10:50:44.804Z,5.1
2024-04-21T10:51:46.803Z,5.1
2024-04-21T10:52:48.830Z,5.3
2024-04-21T10:53:50.805Z,5.3
2024-04-21T10:54:52.847Z,5.3
2024-04-21T10:55:55.228Z,5.3
2024-04-21T10:56:56.950Z,5.3
2024-04-21T10:57:58.808Z,5.3
2024-04-21T10:59:00.797Z,5.3
2024-04-21T11:00:02.818Z,5.5
2024-04-21T11:01:04.881Z,5.8
2024-04-21T11:02:06.849Z,6.1
2024-04-21T11:03:08.874Z,6.6
2024-04-21T11:04:10.813Z,7
2024-04-21T11:05:12.788Z,7.3
2024-04-21T11:06:14.811Z,7.7
2024-04-21T11:07:16.882Z,8
2024-04-21T11:08:18.782Z,8.4
2024-04-21T11:09:21.062Z,8.6
2024-04-21T11:10:22.954Z,8.8
2024-04-21T11:11:24.834Z,9
2024-04-21T11:12:28.394Z,9.1
2024-04-21T11:13:29.930Z,9
2024-04-21T11:14:40.786Z,9
2024-04-21T11:15:42.288Z,9.2
2024-04-21T11:16:46.125Z,9.2
2024-04-21T11:17:47.905Z,9
2024-04-21T11:18:49.785Z,9
2024-04-21T11:19:53.561Z,9.1
2024-04-21T11:20:55.569Z,9
2024-04-21T11:21:57.446Z,8.8
2024-04-21T11:22:59.559Z,8.5
2024-04-21T11:24:02.971Z,8.5
2024-04-21T11:25:04.357Z,8.8
2024-04-21T11:26:11.607Z,9
2024-04-21T11:27:13.553Z,8.9
2024-04-21T11:28:15.611Z,8.7
2024-04-21T11:29:17.551Z,8.5
2024-04-21T11:30:19.575Z,8.2
2024-04-21T11:31:21.637Z,7.9
2024-04-21T11:32:23.582Z,7.6
2024-04-21T11:33:25.568Z,7.3
2024-04-21T11:34:27.584Z,7
2024-04-21T11:35:29.574Z,6.9
2024-04-21T11:36:31.543Z,6.7
2024-04-21T11:37:33.551Z,6.6
2024-04-21T11:38:35.558Z,6.6
2024-04-21T11:39:37.574Z,6.8
2024-04-21T11:40:39.549Z,7
2024-04-21T11:41:41.534Z,7.2
2024-04-21T11:42:43.534Z,7.3
2024-04-21T11:43:45.555Z,7.3
2024-04-21T11:44:47.556Z,7.2
2024-04-21T11:45:49.534Z,7.1
2024-04-21T11:46:51.543Z,7
2024-04-21T11:47:53.594Z,7
2024-04-21T11:48:55.865Z,7
2024-04-21T11:49:57.541Z,7.2
2024-04-21T11:50:59.524Z,7.5
2024-04-21T11:52:01.547Z,7.8
2024-04-21T11:53:03.536Z,8.4
2024-04-21T11:54:05.554Z,9
2024-04-21T11:55:07.550Z,9.4
2024-04-21T11:56:09.519Z,9.9
2024-04-21T11:57:11.517Z,10.4
2024-04-21T11:58:13.559Z,10.7
2024-04-21T11:59:15.527Z,11
2024-04-21T12:00:17.514Z,11.5
2024-04-21T12:01:22.383Z,11.8
2024-04-21T12:02:40.714Z,11.7
2024-04-21T12:03:42.815Z,11.5
2024-04-21T12:04:44.845Z,10.9
2024-04-21T12:05:46.672Z,10.4
2024-04-21T12:06:48.711Z,10.1
2024-04-21T12:07:50.701Z,9.7
2024-04-21T12:08:54.374Z,9.2
2024-04-21T12:09:55.081Z,8.9
2024-04-21T12:10:57.092Z,8.5
2024-04-21T12:11:59.646Z,8.1
2024-04-21T12:13:01.218Z,7.6
2024-04-21T12:14:03.440Z,7
2024-04-21T12:15:05.460Z,6.3
2024-04-21T12:16:07.989Z,5.5
2024-04-21T12:17:09.211Z,4.9
2024-04-21T12:18:11.184Z,4.5
2024-04-21T12:19:13.769Z,4.2
2024-04-21T12:20:15.152Z,3.9
2024-04-21T12:21:17.198Z,3.6
2024-04-21T12:22:19.203Z,3.5
2024-04-21T12:23:21.151Z,3.3
2024-04-21T12:24:23.157Z,3.3
2024-04-21T12:25:25.163Z,3.1
2024-04-21T12:26:27.177Z,3.1
2024-04-21T12:27:29.145Z,3
2024-04-21T12:28:31.195Z,3.1
2024-04-21T12:29:33.139Z,3.1
2024-04-21T12:30:35.166Z,3.3
2024-04-21T12:31:37.233Z,3.6
2024-04-21T12:32:39.190Z,4
2024-04-21T12:33:41.537Z,4.3
2024-04-21T12:34:43.136Z,4.6
2024-04-21T12:35:45.169Z,4.8
2024-04-21T12:36:47.698Z,5
2024-04-21T12:37:51.004Z,5.2
2024-04-21T12:38:53.004Z,5.5
2024-04-21T12:39:55.058Z,6.1
2024-04-21T12:40:57.437Z,6.7
2024-04-21T12:41:59.183Z,7.3
2024-04-21T12:43:01.024Z,8
2024-04-21T12:44:03.040Z,8.5
2024-04-21T12:45:05.038Z,9
2024-04-21T12:46:07.113Z,9.4
2024-04-21T12:47:09.052Z,9.9
2024-04-21T12:48:12.085Z,10.3
2024-04-21T12:49:17.192Z,10.7
2024-04-21T12:50:19.158Z,10.9
2024-04-21T12:51:21.162Z,11.1
2024-04-21T12:52:23.162Z,11.4
2024-04-21T12:53:25.826Z,11.7
2024-04-21T12:54:28.769Z,12
2024-04-21T12:55:30.637Z,12.2
2024-04-21T12:56:34.728Z,12.3
2024-04-21T12:57:39.251Z,12.1
2024-04-21T12:58:40.823Z,11.6
2024-04-21T12:59:45.750Z,11
2024-04-21T13:00:50.036Z,10.4
2024-04-21T13:01:51.826Z,9.7
2024-04-21T13:02:53.861Z,9
2024-04-21T13:03:55.885Z,8.5
2024-04-21T13:04:58.041Z,8
2024-04-21T13:06:03.703Z,7.5
2024-04-21T13:07:05.194Z,7.2
2024-04-21T13:08:07.468Z,6.8
2024-04-21T13:09:09.257Z,6.4
2024-04-21T13:10:11.611Z,6.1
2024-04-21T13:11:13.648Z,5.9
2024-04-21T13:12:16.288Z,5.8
2024-04-21T13:13:17.949Z,5.7
2024-04-21T13:14:20.390Z,5.7
2024-04-21T13:15:24.613Z,5.7
2024-04-21T13:16:26.171Z,5.5
2024-04-21T13:17:28.505Z,5.3
2024-04-21T13:18:30.304Z,5.1
2024-04-21T13:19:32.578Z,4.9
2024-04-21T13:20:35.816Z,4.7
2024-04-21T13:21:36.980Z,4.6
2024-04-21T13:22:39.330Z,4.6
2024-04-21T13:23:42.989Z,4.6
2024-04-21T13:24:44.503Z,4.7
2024-04-21T13:25:46.538Z,4.9
2024-04-21T13:26:48.742Z,5
2024-04-21T13:27:51.436Z,5
2024-04-21T13:28:53.871Z,4.9
2024-04-21T13:29:57.349Z,4.9
2024-04-21T13:30:58.936Z,5
2024-04-21T13:32:01.626Z,5
2024-04-21T13:33:03.323Z,5
2024-04-21T13:34:06.835Z,5
2024-04-21T13:35:09.797Z,5.1
2024-04-21T13:36:23.565Z,5.3
2024-04-21T13:37:40.772Z,5.8
2024-04-21T13:38:41.928Z,6.5
2024-04-21T13:39:43.941Z,7.4
2024-04-21T13:40:45.966Z,8.4
2024-04-21T13:41:47.960Z,9.4
2024-04-21T13:42:49.931Z,10.2
2024-04-21T13:43:51.922Z,10.9
2024-04-21T13:44:53.925Z,11.4
2024-04-21T13:45:55.989Z,11.9
2024-04-21T13:46:57.929Z,12.4
2024-04-21T13:47:59.941Z,12.6
2024-04-21T13:49:01.970Z,13
2024-04-21T13:50:03.945Z,13.5
2024-04-21T13:51:12.977Z,14
2024-04-21T13:52:31.735Z,14.6
2024-04-21T13:53:33.680Z,15
2024-04-21T13:54:35.683Z,15.4
2024-04-21T13:55:37.732Z,15.7
2024-04-21T13:56:39.685Z,15.8
2024-04-21T13:57:41.678Z,15.6
2024-04-21T13:58:43.672Z,15.3
2024-04-21T13:59:45.698Z,14.2
2024-04-21T14:00:47.694Z,12.8
2024-04-21T14:01:49.752Z,11.6
2024-04-21T14:02:51.688Z,10.5
2024-04-21T14:03:53.728Z,9.4
2024-04-21T14:04:55.713Z,8.5
2024-04-21T14:05:57.665Z,7.8
2024-04-21T14:06:59.685Z,7
2024-04-21T14:08:01.677Z,6.3
2024-04-21T14:09:03.702Z,5.6
2024-04-21T14:10:05.696Z,5
2024-04-21T14:11:07.663Z,4.5
2024-04-21T14:12:09.660Z,4.1
2024-04-21T14:13:11.754Z,3.8
2024-04-21T14:14:13.682Z,3.6
2024-04-21T14:15:15.659Z,3.5
2024-04-21T14:16:17.826Z,3.3
2024-04-21T14:17:19.665Z,3.1
2024-04-21T14:18:21.940Z,3
2024-04-21T14:19:23.685Z,2.8
2024-04-21T14:20:25.644Z,2.7
2024-04-21T14:21:27.641Z,2.7
2024-04-21T14:22:29.700Z,2.5
2024-04-21T14:23:32.389Z,2.4
2024-04-21T14:24:33.660Z,2.4
2024-04-21T14:25:35.682Z,2.4
2024-04-21T14:26:37.637Z,2.5